Map

Track Data

SID SEASON NUMBER BASIN SUBBASIN NAME ISO_TIME NATURE LAT LON WMO_WIND WMO_PRES WMO_AGENCY TRACK_TYPE DIST2LAND LANDFALL IFLAG USA_AGENCY USA_ATCF_ID USA_LAT USA_LON USA_RECORD USA_STATUS USA_WIND USA_PRES USA_SSHS USA_R34_NE USA_R34_SE USA_R34_SW USA_R34_NW USA_R50_NE USA_R50_SE USA_R50_SW USA_R50_NW USA_R64_NE USA_R64_SE USA_R64_SW USA_R64_NW USA_POCI USA_ROCI USA_RMW USA_EYE TOKYO_LAT TOKYO_LON TOKYO_GRADE TOKYO_WIND TOKYO_PRES TOKYO_R50_DIR TOKYO_R50_LONG TOKYO_R50_SHORT TOKYO_R30_DIR TOKYO_R30_LONG TOKYO_R30_SHORT TOKYO_LAND CMA_LAT CMA_LON CMA_CAT CMA_WIND CMA_PRES HKO_LAT HKO_LON HKO_CAT HKO_WIND HKO_PRES NEWDELHI_LAT NEWDELHI_LON NEWDELHI_GRADE NEWDELHI_WIND NEWDELHI_PRES NEWDELHI_CI NEWDELHI_DP NEWDELHI_POCI REUNION_LAT REUNION_LON REUNION_TYPE REUNION_WIND REUNION_PRES REUNION_TNUM REUNION_CI REUNION_RMW REUNION_R34_NE REUNION_R34_SE REUNION_R34_SW REUNION_R34_NW REUNION_R50_NE REUNION_R50_SE REUNION_R50_SW REUNION_R50_NW REUNION_R64_NE REUNION_R64_SE REUNION_R64_SW REUNION_R64_NW BOM_LAT BOM_LON BOM_TYPE BOM_WIND BOM_PRES BOM_TNUM BOM_CI BOM_RMW BOM_R34_NE BOM_R34_SE BOM_R34_SW BOM_R34_NW BOM_R50_NE BOM_R50_SE BOM_R50_SW BOM_R50_NW BOM_R64_NE BOM_R64_SE BOM_R64_SW BOM_R64_NW BOM_ROCI BOM_POCI BOM_EYE BOM_POS_METHOD BOM_PRES_METHOD NADI_LAT NADI_LON NADI_CAT NADI_WIND NADI_PRES WELLINGTON_LAT WELLINGTON_LON WELLINGTON_WIND WELLINGTON_PRES DS824_LAT DS824_LON DS824_STAGE DS824_WIND DS824_PRES TD9636_LAT TD9636_LON TD9636_STAGE TD9636_WIND TD9636_PRES TD9635_LAT TD9635_LON TD9635_WIND TD9635_PRES TD9635_ROCI NEUMANN_LAT NEUMANN_LON NEUMANN_CLASS NEUMANN_WIND NEUMANN_PRES MLC_LAT MLC_LON MLC_CLASS MLC_WIND MLC_PRES USA_GUST BOM_GUST BOM_GUST_PER REUNION_GUST REUNION_GUST_PER USA_SEAHGT USA_SEARAD_NE USA_SEARAD_SE USA_SEARAD_SW USA_SEARAD_NW STORM_SPEED STORM_DIR
1969216N16253 1969 50 EP MM DOREEN 1969-08-04 00:00:00 TS 15.9000 -107.000 45 hurdat_epa main 436 423 O________OO___ hurdat_epa EP041969 15.9000 -107.000 TS 45 0 15.9000 -107.000 TC 45 15.9000 -107.000 2 5 335
1969216N16253 1969 50 EP MM DOREEN 1969-08-04 03:00:00 TS 16.1058 -107.101 main 423 412 P________PP___ EP041969 16.1100 -107.100 TS 45 0 16.1100 -107.100 TC 45 16.0891 -107.103 2 4 334
1969216N16253 1969 50 EP MM DOREEN 1969-08-04 06:00:00 TS 16.2945 -107.201 45 hurdat_epa main 412 403 O________OP___ hurdat_epa EP041969 16.3000 -107.200 TS 45 0 16.3000 -107.200 TC 45 16.2726 -107.205 2 4 331
1969216N16253 1969 50 EP MM DOREEN 1969-08-04 09:00:00 TS 16.4550 -107.301 main 401 400 P________PP___ EP041969 16.4575 -107.300 TS 45 0 16.4575 -107.300 TC 45 16.4448 -107.304 2 4 328
1969216N16253 1969 50 EP MM DOREEN 1969-08-04 12:00:00 TS 16.6000 -107.400 45 hurdat_epa main 400 392 O________OO___ hurdat_epa EP041969 16.6000 -107.400 TS 45 0 16.6000 -107.400 TC 45 16.6000 -107.400 2 3 327
1969216N16253 1969 50 EP MM DOREEN 1969-08-04 15:00:00 TS 16.7473 -107.493 main 399 391 P________PP___ EP041969 16.7500 -107.493 TS 47 0 16.7500 -107.493 TC 47 16.7367 -107.494 2 4 327
1969216N16253 1969 50 EP MM DOREEN 1969-08-04 18:00:00 TS 16.8940 -107.600 50 hurdat_epa main 391 391 O________OP___ hurdat_epa EP041969 16.9000 -107.600 TS 50 0 16.9000 -107.600 TC 50 16.8698 -107.598 2 4 321
1969216N16253 1969 50 EP MM DOREEN 1969-08-04 21:00:00 TS 17.0316 -107.734 main 391 391 P________PP___ EP041969 17.0350 -107.735 TS 50 0 17.0350 -107.735 TC 50 17.0179 -107.728 2 4 317
1969216N16253 1969 50 EP MM DOREEN 1969-08-05 00:00:00 TS 17.2000 -107.900 50 hurdat_epa main 391 383 O________OO___ hurdat_epa EP041969 17.2000 -107.900 TS 50 0 17.2000 -107.900 TC 50 17.2000 -107.900 2 5 321
1969216N16253 1969 50 EP MM DOREEN 1969-08-05 03:00:00 TS 17.4321 -108.077 main 391 384 P________PP___ EP041969 17.4274 -108.070 TS 50 0 17.4274 -108.070 TC 50 17.4510 -108.103 2 6 322
1969216N16253 1969 50 EP MM DOREEN 1969-08-05 06:00:00 TS 17.7069 -108.311 50 hurdat_epa main 387 387 O________OP___ hurdat_epa EP041969 17.7000 -108.300 TS 50 0 17.7000 -108.300 TC 50 17.7346 -108.352 2 8 318
1969216N16253 1969 50 EP MM DOREEN 1969-08-05 09:00:00 TS 18.0111 -108.620 main 395 395 P________PP___ EP041969 18.0075 -108.612 TS 50 0 18.0075 -108.612 TC 50 18.0259 -108.650 2 9 312
1969216N16253 1969 50 EP MM DOREEN 1969-08-05 12:00:00 TS 18.3000 -109.000 50 hurdat_epa main 413 413 O________OO___ hurdat_epa EP041969 18.3000 -109.000 TS 50 0 18.3000 -109.000 TC 50 18.3000 -109.000 2 9 303
1969216N16253 1969 50 EP MM DOREEN 1969-08-05 15:00:00 TS 18.5155 -109.428 main 442 442 P________PP___ EP041969 18.5150 -109.435 TS 62 0 18.5150 -109.435 TC 62 18.5177 -109.400 2 9 296
1969216N16253 1969 50 EP MM DOREEN 1969-08-05 18:00:00 TS 18.7030 -109.890 75 hurdat_epa main 469 447 O________OP___ hurdat_epa EP041969 18.7000 -109.900 HU 75 1 18.7000 -109.900 TC 75 18.7152 -109.848 2 9 294
1969216N16253 1969 50 EP MM DOREEN 1969-08-05 21:00:00 TS 18.8949 -110.345 main 448 431 P________PP___ EP041969 18.8924 -110.350 HU 75 1 18.8924 -110.350 TC 75 18.9051 -110.322 2 10 295
1969216N16253 1969 50 EP MM DOREEN 1969-08-06 00:00:00 TS 19.1000 -110.800 75 hurdat_epa main 432 418 O________OO___ hurdat_epa EP041969 19.1000 -110.800 HU 75 1 19.1000 -110.800 TC 75 19.1000 -110.800 4 10 298
1969216N16253 1969 50 EP MM DOREEN 1969-08-06 03:00:00 TS 19.3442 -111.250 main 424 404 P________PP___ EP041969 19.3499 -111.250 HU 75 1 19.3499 -111.250 TC 75 19.3215 -111.250 4 10 300
1969216N16253 1969 50 EP MM DOREEN 1969-08-06 06:00:00 TS 19.5899 -111.700 75 hurdat_epa main 408 403 O________OP___ hurdat_epa EP041969 19.6000 -111.700 HU 75 1 19.6000 -111.700 TC 75 19.5496 -111.700 4 10 298
1969216N16253 1969 50 EP MM DOREEN 1969-08-06 09:00:00 TS 19.8015 -112.150 main 414 411 P________PP___ EP041969 19.8074 -112.150 HU 75 1 19.8074 -112.150 TC 75 19.7778 -112.150 4 9 296
1969216N16253 1969 50 EP MM DOREEN 1969-08-06 12:00:00 TS 20.0000 -112.600 75 hurdat_epa main 421 419 O________OO___ hurdat_epa EP041969 20.0000 -112.600 HU 75 1 20.0000 -112.600 TC 75 20.0000 -112.600 4 9 295
1969216N16253 1969 50 EP MM DOREEN 1969-08-06 15:00:00 TS 20.2029 -113.049 main 432 432 P________PP___ EP041969 20.1999 -113.050 HU 75 1 20.1999 -113.050 TC 75 20.2148 -113.042 4 9 296
1969216N16253 1969 50 EP MM DOREEN 1969-08-06 18:00:00 TS 20.4044 -113.497 75 hurdat_epa main 457 457 O________OP___ hurdat_epa EP041969 20.4000 -113.500 HU 75 1 20.4000 -113.500 TC 75 20.4218 -113.485 4 9 296
1969216N16253 1969 50 EP MM DOREEN 1969-08-06 21:00:00 TS 20.6094 -113.941 main 477 477 P________PP___ EP041969 20.6073 -113.943 HU 60 0 20.6073 -113.943 TC 60 20.6179 -113.936 4 9 295
1969216N16253 1969 50 EP MM DOREEN 1969-08-07 00:00:00 TS 20.8000 -114.400 45 hurdat_epa main 492 492 O________OO___ hurdat_epa EP041969 20.8000 -114.400 TS 45 0 20.8000 -114.400 TC 45 20.8000 -114.400 2 10 291
1969216N16253 1969 50 EP MM DOREEN 1969-08-07 03:00:00 TS 20.9613 -114.899 main 503 503 P________PP___ EP041969 20.9574 -114.893 TS 45 0 20.9574 -114.893 TC 45 20.9770 -114.922 2 10 288
1969216N16253 1969 50 EP MM DOREEN 1969-08-07 06:00:00 TS 21.1076 -115.410 45 hurdat_epa main 525 525 O________OP___ hurdat_epa EP041969 21.1000 -115.400 TS 45 0 21.1000 -115.400 TC 45 21.1382 -115.452 2 10 287
1969216N16253 1969 50 EP MM DOREEN 1969-08-07 09:00:00 TS 21.2621 -115.935 main 543 543 P________PP___ EP041969 21.2576 -115.930 TS 45 0 21.2576 -115.930 TC 45 21.2802 -115.956 2 10 288
1969216N16253 1969 50 EP MM DOREEN 1969-08-07 12:00:00 TS 21.4000 -116.400 45 hurdat_epa main 573 573 O________OO___ hurdat_epa EP041969 21.4000 -116.400 TS 45 0 21.4000 -116.400 TC 45 21.4000 -116.400 1 8 288
1969216N16253 1969 50 EP MM DOREEN 1969-08-07 15:00:00 TS 21.5126 -116.741 main 589 589 P________PP___ EP041969 21.5148 -116.738 TS 35 0 21.5148 -116.738 TC 35 21.5040 -116.752 1 6 289
1969216N16253 1969 50 EP MM DOREEN 1969-08-07 18:00:00 TS 21.5973 -117.008 25 hurdat_epa main 606 606 O________OP___ hurdat_epa EP041969 21.6000 -117.000 TD 25 -1 21.6000 -117.000 TC 25 21.5866 -117.040 1 5 286
1969216N16253 1969 50 EP MM DOREEN 1969-08-07 21:00:00 TS 21.6562 -117.269 main 625 625 P________PP___ EP041969 21.6575 -117.265 TD 25 -1 21.6575 -117.265 TC 25 21.6510 -117.283 1 5 283
1969216N16253 1969 50 EP MM DOREEN 1969-08-08 00:00:00 TS 21.7000 -117.500 25 hurdat_epa main 642 642 O________OO___ hurdat_epa EP041969 21.7000 -117.500 TD 25 -1 21.7000 -117.500 TC 25 21.7000 -117.500 1 4 284
1969216N16253 1969 50 EP MM DOREEN 1969-08-08 03:00:00 TS 21.7554 -117.709 main 653 653 P________PP___ EP041969 21.7574 -117.707 TD 25 -1 21.7574 -117.707 TC 25 21.7472 -117.714 1 4 284
1969216N16253 1969 50 EP MM DOREEN 1969-08-08 06:00:00 TS 21.7959 -117.902 25 hurdat_epa main 671 671 O________OP___ hurdat_epa EP041969 21.8000 -117.900 TD 25 -1 21.8000 -117.900 TC 25 21.7796 -117.908 1 4 278
1969216N16253 1969 50 EP MM DOREEN 1969-08-08 09:00:00 TS 21.8054 -118.094 main 689 689 P________PP___ EP041969 21.8074 -118.093 TD 25 -1 21.8074 -118.093 TC 25 21.7972 -118.098 1 4 271
1969216N16253 1969 50 EP MM DOREEN 1969-08-08 12:00:00 TS 21.8000 -118.300 25 hurdat_epa main 707 707 O________OO___ hurdat_epa EP041969 21.8000 -118.300 TD 25 -1 21.8000 -118.300 TC 25 21.8000 -118.300 1 4 270
1969216N16253 1969 50 EP MM DOREEN 1969-08-08 15:00:00 TS 21.8062 -118.535 main 725 725 P________PP___ EP041969 21.8075 -118.542 TD 25 -1 21.8075 -118.542 TC 25 21.8012 -118.507 1 5 270
1969216N16253 1969 50 EP MM DOREEN 1969-08-08 18:00:00 TS 21.7974 -118.786 25 hurdat_epa main 749 749 O________OP___ hurdat_epa EP041969 21.8000 -118.800 TD 25 -1 21.8000 -118.800 TC 25 21.7869 -118.732 1 5 264
1969216N16253 1969 50 EP MM DOREEN 1969-08-08 21:00:00 TS 21.7627 -119.020 main 761 761 P________PP___ EP041969 21.7648 -119.027 TD 25 -1 21.7648 -119.027 TC 25 21.7542 -118.991 1 5 258
1969216N16253 1969 50 EP MM DOREEN 1969-08-09 00:00:00 TS 21.7000 -119.300 25 hurdat_epa main 789 789 O________OO___ hurdat_epa EP041969 21.7000 -119.300 TD 25 -1 21.7000 -119.300 TC 25 21.7000 -119.300 1 6 256
1969216N16253 1969 50 EP MM DOREEN 1969-08-09 03:00:00 TS 21.6105 -119.670 main 823 823 P________PP___ EP041969 21.6075 -119.670 TD 25 -1 21.6075 -119.670 TC 25 21.6227 -119.669 1 8 255
1969216N16253 1969 50 EP MM DOREEN 1969-08-09 06:00:00 TS 21.5053 -120.097 25 hurdat_epa main 859 859 O________OP___ hurdat_epa EP041969 21.5000 -120.100 TD 25 -1 21.5000 -120.100 TC 25 21.5264 -120.086 1 8 256
1969216N16253 1969 50 EP MM DOREEN 1969-08-09 09:00:00 TS 21.4015 -120.545 main 895 895 P________PP___ EP041969 21.3977 -120.548 TD 25 -1 21.3977 -120.548 TC 25 21.4169 -120.535 1 9 256
1969216N16253 1969 50 EP MM DOREEN 1969-08-09 12:00:00 TS 21.3000 -121.000 25 hurdat_epa main 937 O________OO___ hurdat_epa EP041969 21.3000 -121.000 TD 25 -1 21.3000 -121.000 TC 25 21.3000 -121.000 1 9 257

About IBTrACS Database

This database is a web-friendly format of International Best Track Archive for Climate Stewardship (IBTrACS), a global best track data archive curated by NOAA dating back to 1842.

Updated: 2021-11-26